National Weather Service United States Department of Commerce

Stormy Weather in the Northwest; Fire Weather Threat Redeveloping in Southern California this Weekend

An active fall storm pattern in the Pacific Northwest is bringing heavy rain and high elevation snow to the region which will persist through this weekend. Strong winds associated with this system will bring a renewed period of critical fire weather to southern California later this weekend into next week. Read More >

                                       ZTL Airspace Summary / KATL TAF                    For ATC Planning Purposes Only
ZTL Airspace Summary:
High pressure will continue to dominate the airspace. Expect VFR conditions under mostly clear skies. However, low clouds and fog may develop across the southern Appalachians near daybreak. Surface winds will be north to southeast at 3-8kts, and frequently calm overnight. Flight Hazards: LGT-MOD turbulence is expected above FL240.

Updated: 10/19/2017 8:04 PM
 

Hartsfield-Jackson Atlanta International Airport Terminal Aerodrome Forecast:
 
FTUS80 KATL 192330
KATL 192326Z 2000/2106 00000KT P6SM SKC
     FM201400 08004KT P6SM SKC

 

ATL METAR:  
SAUS70 KATL 200100
METAR KATL 200052Z 00000KT 10SM FEW250 18/06 A3025 RMK AO2 SLP241
     T01830056

Go to KATL TAF TDA
Go to KATL TAF TDA

 
ATL TRACON HAZARDS
ATL TRACON: SFC-14000
AVG CIG BASE WHERE REPORTED BLW 10000FT: NONE REPORTED
LOWEST REPORTED CIG: NONE REPORTED
LOWEST REPORTED FLIGHT CAT: VFR
METARS:
K6A2 200115Z AUTO 00000KT 10SM CLR 12/11 A3025 RMK AO2
KPUJ 200115Z AUTO 36004KT 10SM CLR 17/10 A3026 RMK AO2
KFFC 200053Z AUTO 00000KT 10SM CLR 12/11 A3025 RMK AO2 SLP246 T01170106
KHMP 200115Z AUTO 00000KT 10SM CLR 11/10 A3025 RMK AO2 T01100100
KD73 200115Z AUTO 00000KT 10SM CLR 10/10 A3025 RMK AO2 T01030097
KATL 200052Z 00000KT 10SM FEW250 18/06 A3025 RMK AO2 SLP241 T01830056
KCCO 200115Z AUTO 00000KT 10SM CLR 14/12 A3024 RMK AO2 T01360117
KMGE 200056Z 35003KT 10SM FEW250 13/09 A3025 RMK AO2A SLP245 T01340085 $
KLZU 200056Z AUTO 00000KT 10SM CLR 12/08 A3024 RMK AO2 SLP239 T01220083 $
KCTJ 200115Z AUTO 00000KT 10SM CLR 12/10 A3029 RMK AO2 T01160095
KRYY 200048Z 00000KT 10SM CLR 14/11 A3026 RMK AO2 SLP968 T01390106
KFTY 200053Z 00000KT 10SM CLR 13/11 A3025 RMK AO2 SLP241 T01280111
KVPC 200053Z AUTO 00000KT 10SM CLR 11/11 A3026 RMK AO2 SLP243 T01060106
KPDK 200053Z 00000KT 10SM CLR 12/08 A3025 RMK AO2 SLP246 T01220083
KCVC 200116Z AUTO 00000KT 10SM CLR 12/11 A3024 RMK AO2

ATL TRACON HAZARD

Forecast Surface Map Loop / Collaborative Convective Forecast Product / Vertical Wind Profile
Weather Map

 

AIRMETs & SIGMETS/ Southeast Radar loop / Satellite Image (click on image to enlarge)
Weather Map Southeast Radar Loop

satellite